createdAt,value
2018-12-08T00:01:45.008Z,0.90
2018-12-08T00:04:12.478Z,1.10
2018-12-08T00:06:39.926Z,1.20
2018-12-08T00:09:07.405Z,1.30
2018-12-08T00:11:34.941Z,1.27
2018-12-08T00:14:02.508Z,1.07
2018-12-08T00:16:30.078Z,1.60
2018-12-08T00:18:57.571Z,1.40
2018-12-08T00:21:25.786Z,1.30
2018-12-08T00:23:54.172Z,1.30
2018-12-08T00:26:24.821Z,1.23
2018-12-08T00:28:52.299Z,1.60
2018-12-08T00:34:16.514Z,1.67
2018-12-08T00:36:44.934Z,1.33
2018-12-08T00:39:14.379Z,1.50
2018-12-08T00:41:41.831Z,1.40
2018-12-08T00:44:10.320Z,1.40
2018-12-08T00:46:37.793Z,1.90
2018-12-08T00:49:05.234Z,1.47
2018-12-08T00:51:32.683Z,1.43
2018-12-08T00:54:02.072Z,1.40
2018-12-08T00:56:31.448Z,1.50
2018-12-08T00:58:58.922Z,1.57
2018-12-08T01:01:26.995Z,1.53
2018-12-08T01:03:54.546Z,1.30
2018-12-08T01:06:22.053Z,1.60
2018-12-08T01:08:49.515Z,1.53
2018-12-08T01:11:22.784Z,1.40
2018-12-08T01:13:50.243Z,1.50
2018-12-08T01:16:17.801Z,1.60
2018-12-08T01:18:46.239Z,1.13
2018-12-08T01:21:13.710Z,0.97
2018-12-08T01:23:41.163Z,1.70
2018-12-08T01:26:09.547Z,1.30
2018-12-08T01:28:40.786Z,1.40
2018-12-08T01:31:08.240Z,1.23
2018-12-08T01:33:35.690Z,1.30
2018-12-08T01:36:04.106Z,1.40
2018-12-08T01:38:31.921Z,1.00
2018-12-08T01:40:59.539Z,1.53
2018-12-08T01:43:29.712Z,1.53
2018-12-08T01:45:57.741Z,1.57
2018-12-08T01:48:25.196Z,1.30
2018-12-08T01:50:52.680Z,1.43
2018-12-08T01:53:21.121Z,1.70
2018-12-08T01:55:48.581Z,1.30
2018-12-08T01:58:16.069Z,1.20
2018-12-08T02:00:44.515Z,1.73
2018-12-08T02:03:12.047Z,1.27
2018-12-08T02:05:39.505Z,1.63
2018-12-08T02:08:06.945Z,1.83
2018-12-08T02:10:34.403Z,1.40
2018-12-08T02:13:01.855Z,1.37
2018-12-08T02:15:29.334Z,1.67
2018-12-08T02:17:56.808Z,1.30
2018-12-08T02:20:24.287Z,1.70
2018-12-08T02:22:51.735Z,1.70
2018-12-08T02:25:20.311Z,1.60
2018-12-08T02:27:47.803Z,1.40
2018-12-08T02:30:15.262Z,1.60
2018-12-08T02:32:42.697Z,1.30
2018-12-08T02:35:10.171Z,0.93
2018-12-08T02:37:37.611Z,1.60
2018-12-08T02:40:06.350Z,1.30
2018-12-08T02:42:33.811Z,1.37
2018-12-08T02:45:01.288Z,1.90
2018-12-08T02:47:28.805Z,1.67
2018-12-08T02:49:56.624Z,1.30
2018-12-08T02:52:24.107Z,1.60
2018-12-08T02:54:52.523Z,1.50
2018-12-08T02:57:21.904Z,1.60
2018-12-08T02:59:49.330Z,1.70
2018-12-08T03:02:16.826Z,1.50
2018-12-08T03:04:45.212Z,1.37
2018-12-08T03:07:12.698Z,1.70
2018-12-08T03:09:40.201Z,1.60
2018-12-08T03:12:07.634Z,1.63
2018-12-08T03:14:37.086Z,1.90
2018-12-08T03:17:04.568Z,1.83
2018-12-08T03:19:32.025Z,2.17
2018-12-08T03:21:59.470Z,2.00
2018-12-08T03:24:26.934Z,1.70
2018-12-08T03:26:59.074Z,1.70
2018-12-08T03:29:26.521Z,1.47
2018-12-08T03:31:54.017Z,1.73
2018-12-08T03:34:23.383Z,1.60
2018-12-08T03:36:50.880Z,1.80
2018-12-08T03:39:18.349Z,1.60
2018-12-08T03:41:45.817Z,2.00
2018-12-08T03:44:13.251Z,1.60
2018-12-08T03:46:40.707Z,1.73
2018-12-08T03:49:08.153Z,1.90
2018-12-08T03:51:35.633Z,1.90
2018-12-08T03:54:03.153Z,1.97
2018-12-08T03:56:34.702Z,2.20
2018-12-08T03:59:02.167Z,1.60
2018-12-08T04:01:29.885Z,1.67
2018-12-08T04:03:59.319Z,1.87
2018-12-08T04:06:26.775Z,2.43
2018-12-08T04:08:56.171Z,1.80
2018-12-08T04:11:24.548Z,1.77
2018-12-08T04:13:53.971Z,1.93
2018-12-08T04:16:21.427Z,2.00
2018-12-08T04:18:48.884Z,2.03
2018-12-08T04:21:16.372Z,1.50
2018-12-08T04:23:43.817Z,1.80
2018-12-08T04:26:15.024Z,1.37
2018-12-08T04:28:42.475Z,1.43
2018-12-08T04:31:09.940Z,1.63
2018-12-08T04:33:37.386Z,1.67
2018-12-08T04:36:04.841Z,1.63
2018-12-08T04:38:34.373Z,1.40
2018-12-08T04:41:01.819Z,1.80
2018-12-08T04:43:30.090Z,1.60
2018-12-08T04:45:57.548Z,1.70
2018-12-08T04:48:24.989Z,1.80
2018-12-08T04:50:54.405Z,1.70
2018-12-08T04:53:23.797Z,1.47
2018-12-08T04:55:51.254Z,1.47
2018-12-08T04:58:19.642Z,1.57
2018-12-08T05:00:47.100Z,1.73
2018-12-08T05:03:14.547Z,1.83
2018-12-08T05:05:42.003Z,2.37
2018-12-08T05:08:10.125Z,2.03
2018-12-08T05:10:37.617Z,1.50
2018-12-08T05:13:05.086Z,1.60
2018-12-08T05:15:32.541Z,1.40
2018-12-08T05:18:00.756Z,1.50
2018-12-08T05:20:28.254Z,1.47
2018-12-08T05:22:55.726Z,1.80
2018-12-08T05:25:23.157Z,1.27
2018-12-08T05:27:50.598Z,1.70
2018-12-08T05:30:18.051Z,1.53
2018-12-08T05:32:45.494Z,1.80
2018-12-08T05:35:13.946Z,1.50
2018-12-08T05:37:41.401Z,1.40
2018-12-08T05:40:09.835Z,1.63
2018-12-08T05:42:41.648Z,1.80
2018-12-08T05:45:09.126Z,1.60
2018-12-08T05:47:36.605Z,1.30
2018-12-08T05:50:04.913Z,1.40
2018-12-08T05:52:32.341Z,1.60
2018-12-08T05:55:00.799Z,1.43
2018-12-08T05:57:29.264Z,1.63
2018-12-08T06:00:00.635Z,1.30
2018-12-08T06:02:28.089Z,1.60
2018-12-08T06:04:56.523Z,1.60
2018-12-08T06:07:24.014Z,1.20
2018-12-08T06:09:51.460Z,1.57
2018-12-08T06:12:18.917Z,1.67
2018-12-08T06:14:48.306Z,1.50
2018-12-08T06:17:15.775Z,1.50
2018-12-08T06:19:43.228Z,1.70
2018-12-08T06:22:10.710Z,1.47
2018-12-08T06:24:39.150Z,1.70
2018-12-08T06:27:06.750Z,1.67
2018-12-08T06:29:35.228Z,1.97
2018-12-08T06:32:02.725Z,1.60
2018-12-08T06:34:30.198Z,1.73
2018-12-08T06:36:57.696Z,1.63
2018-12-08T06:39:27.070Z,1.80
2018-12-08T06:41:57.837Z,1.60
2018-12-08T06:44:25.291Z,1.43
2018-12-08T06:46:57.207Z,1.50
2018-12-08T06:49:24.667Z,1.50
2018-12-08T06:51:52.135Z,1.87
2018-12-08T06:54:19.590Z,1.37
2018-12-08T06:56:47.989Z,1.07
2018-12-08T06:59:17.392Z,1.83
2018-12-08T07:01:45.862Z,1.77
2018-12-08T07:04:13.323Z,1.70
2018-12-08T07:06:41.674Z,1.40
2018-12-08T07:09:09.127Z,1.67
2018-12-08T07:11:36.587Z,1.30
2018-12-08T07:14:05.027Z,1.33
2018-12-08T07:16:35.334Z,1.40
2018-12-08T07:19:05.560Z,1.30
2018-12-08T07:21:33.547Z,1.30
2018-12-08T07:24:01.002Z,1.40
2018-12-08T07:26:28.431Z,1.40
2018-12-08T07:28:55.901Z,1.20
2018-12-08T07:31:23.360Z,1.20
2018-12-08T07:33:51.800Z,1.77
2018-12-08T07:36:19.265Z,1.57
2018-12-08T07:38:46.886Z,1.70
2018-12-08T07:41:14.651Z,1.32
2018-12-08T07:43:45.642Z,1.13
2018-12-08T07:46:13.085Z,1.40
2018-12-08T07:48:40.583Z,1.43
2018-12-08T07:51:11.576Z,1.80
2018-12-08T07:53:42.142Z,1.30
2018-12-08T07:56:09.754Z,1.50
2018-12-08T07:58:37.330Z,1.57
2018-12-08T08:01:04.816Z,1.50
2018-12-08T08:03:33.983Z,1.70
2018-12-08T08:06:01.680Z,1.60
2018-12-08T08:08:29.483Z,1.30
2018-12-08T08:10:59.514Z,2.00
2018-12-08T08:13:27.186Z,1.27
2018-12-08T08:16:00.222Z,1.40
2018-12-08T08:18:31.925Z,1.37
2018-12-08T08:21:02.736Z,1.63
2018-12-08T08:23:35.543Z,1.40
2018-12-08T08:26:05.239Z,1.47
2018-12-08T08:28:37.848Z,1.73
2018-12-08T08:31:09.225Z,1.83
2018-12-08T08:33:37.625Z,1.80
2018-12-08T08:36:05.219Z,1.30
2018-12-08T08:38:32.822Z,1.80
2018-12-08T08:41:00.881Z,2.00
2018-12-08T08:43:31.355Z,1.80
2018-12-08T08:46:01.176Z,1.73
2018-12-08T08:48:31.964Z,1.77
2018-12-08T08:51:05.457Z,1.60
2018-12-08T08:53:33.012Z,1.60
2018-12-08T08:56:01.450Z,1.47
2018-12-08T08:58:28.885Z,1.80
2018-12-08T09:00:57.279Z,1.63
2018-12-08T09:03:24.732Z,2.10
2018-12-08T09:05:52.204Z,1.60
2018-12-08T09:08:19.658Z,1.47
2018-12-08T09:10:47.106Z,1.67
2018-12-08T09:13:14.572Z,1.20
2018-12-08T09:15:42.100Z,1.50
2018-12-08T09:18:09.543Z,1.77
2018-12-08T09:20:36.998Z,1.20
2018-12-08T09:23:04.443Z,1.30
2018-12-08T09:25:32.909Z,1.70
2018-12-08T09:28:00.393Z,1.47
2018-12-08T09:30:27.911Z,1.40
2018-12-08T09:32:55.384Z,2.00
2018-12-08T09:35:22.885Z,1.37
2018-12-08T09:37:52.310Z,1.40
2018-12-08T09:40:19.810Z,1.80
2018-12-08T09:42:47.263Z,1.57
2018-12-08T09:45:14.722Z,1.37
2018-12-08T09:47:42.184Z,1.30
2018-12-08T09:50:09.651Z,1.80
2018-12-08T09:52:37.099Z,1.47
2018-12-08T09:55:04.576Z,1.53
2018-12-08T09:57:32.042Z,1.67
2018-12-08T09:59:59.498Z,1.47
2018-12-08T10:02:26.990Z,1.40
2018-12-08T10:04:54.384Z,1.43
2018-12-08T10:07:22.818Z,1.57
2018-12-08T10:09:52.248Z,1.73
2018-12-08T10:12:19.703Z,1.70
2018-12-08T10:14:48.178Z,1.40
2018-12-08T10:17:16.664Z,1.50
2018-12-08T10:19:44.122Z,1.10
2018-12-08T10:22:12.598Z,1.43
2018-12-08T10:24:40.028Z,1.80
2018-12-08T10:27:07.486Z,1.47
2018-12-08T10:29:34.931Z,1.30
2018-12-08T10:32:02.551Z,1.17
2018-12-08T10:34:30.029Z,1.30
2018-12-08T10:36:57.466Z,1.30
2018-12-08T10:39:24.929Z,1.60
2018-12-08T10:41:52.385Z,1.33
2018-12-08T10:44:19.818Z,1.67
2018-12-08T10:46:47.291Z,1.57
2018-12-08T10:49:14.730Z,1.40
2018-12-08T10:51:42.283Z,1.90
2018-12-08T10:54:09.735Z,1.57
2018-12-08T10:56:37.937Z,1.33
2018-12-08T10:59:05.369Z,1.27
2018-12-08T11:01:34.775Z,1.07
2018-12-08T11:04:02.228Z,1.30
2018-12-08T11:06:29.684Z,1.20
2018-12-08T11:08:57.173Z,1.30
2018-12-08T11:11:24.714Z,1.20
2018-12-08T11:13:52.182Z,1.23
2018-12-08T11:16:19.617Z,1.47
2018-12-08T11:18:47.068Z,1.50
2018-12-08T11:21:14.533Z,3.47
2018-12-08T11:23:47.791Z,2.40
2018-12-08T11:26:28.998Z,1.83
2018-12-08T11:29:01.377Z,2.10
2018-12-08T11:31:34.769Z,1.30
2018-12-08T11:34:14.303Z,1.50
2018-12-08T11:36:49.684Z,1.73
2018-12-08T11:39:17.872Z,1.20
2018-12-08T11:41:50.828Z,1.30
2018-12-08T11:44:18.639Z,1.30
2018-12-08T11:46:47.368Z,1.33
2018-12-08T11:49:16.324Z,1.00
2018-12-08T11:51:49.382Z,1.50
2018-12-08T11:54:28.883Z,1.50
2018-12-08T12:02:34.036Z,1.30
2018-12-08T12:10:38.187Z,1.30
2018-12-08T12:13:06.881Z,1.27
2018-12-08T12:21:19.572Z,1.37
2018-12-08T12:23:48.321Z,0.87
2018-12-08T12:26:17.868Z,1.30
2018-12-08T12:28:46.278Z,0.87
2018-12-08T12:31:13.731Z,0.97
2018-12-08T12:33:42.291Z,0.90
2018-12-08T12:36:10.771Z,0.90
2018-12-08T12:38:38.225Z,1.10
2018-12-08T12:41:09.878Z,0.90
2018-12-08T12:43:37.333Z,0.80
2018-12-08T12:46:04.801Z,1.10
2018-12-08T12:48:32.349Z,0.80
2018-12-08T12:50:59.818Z,0.70
2018-12-08T12:53:27.243Z,1.07
2018-12-08T12:55:55.679Z,0.80
2018-12-08T12:58:23.124Z,0.80
2018-12-08T13:00:50.626Z,0.77
2018-12-08T13:03:18.072Z,0.80
2018-12-08T13:05:47.674Z,1.17
2018-12-08T13:08:15.670Z,0.80
2018-12-08T13:10:43.127Z,0.90
2018-12-08T13:13:10.687Z,0.80
2018-12-08T13:15:38.142Z,0.87
2018-12-08T13:18:07.620Z,1.00
2018-12-08T13:20:35.090Z,0.90
2018-12-08T13:23:03.554Z,0.90
2018-12-08T13:25:31.223Z,0.90
2018-12-08T13:27:59.170Z,0.80
2018-12-08T13:30:29.825Z,1.00
2018-12-08T13:33:03.883Z,0.83
2018-12-08T13:35:38.303Z,0.80
2018-12-08T13:38:05.912Z,0.87
2018-12-08T13:40:35.581Z,1.10
2018-12-08T13:43:05.039Z,0.80
2018-12-08T13:45:32.693Z,0.80
2018-12-08T13:48:05.953Z,0.97
2018-12-08T13:50:40.645Z,0.73
2018-12-08T13:53:13.967Z,0.80
2018-12-08T13:55:46.873Z,0.70
2018-12-08T13:58:14.482Z,0.60
2018-12-08T14:00:42.001Z,0.50
2018-12-08T14:03:21.306Z,0.77
2018-12-08T14:05:49.990Z,0.80
2018-12-08T14:08:17.552Z,0.80
2018-12-08T14:10:45.046Z,0.73
2018-12-08T14:13:16.138Z,0.80
2018-12-08T14:15:45.605Z,0.80
2018-12-08T14:18:19.654Z,0.63
2018-12-08T14:20:47.344Z,0.90
2018-12-08T14:23:18.364Z,0.70
2018-12-08T14:25:45.966Z,0.80
2018-12-08T14:28:22.428Z,0.60
2018-12-08T14:30:50.076Z,0.93
2018-12-08T14:33:21.901Z,0.95
2018-12-08T14:36:03.788Z,0.73
2018-12-08T14:38:32.262Z,0.90
2018-12-08T14:40:59.822Z,0.70
2018-12-08T14:43:29.332Z,0.87
2018-12-08T14:45:57.857Z,0.70
2018-12-08T14:48:29.052Z,0.70
2018-12-08T14:50:56.737Z,0.73
2018-12-08T14:53:24.376Z,0.63
2018-12-08T14:55:57.774Z,0.80
2018-12-08T14:58:25.290Z,0.60
2018-12-08T15:00:52.750Z,0.80
2018-12-08T15:03:21.406Z,0.80
2018-12-08T15:05:52.960Z,1.05
2018-12-08T15:08:21.751Z,0.70
2018-12-08T15:10:55.055Z,0.67
2018-12-08T15:13:23.830Z,0.70
2018-12-08T15:15:58.296Z,1.10
2018-12-08T15:18:29.844Z,0.72
2018-12-08T15:21:00.650Z,0.90
2018-12-08T15:23:28.460Z,1.03
2018-12-08T15:25:56.104Z,1.00
2018-12-08T15:28:24.833Z,0.80
2018-12-08T15:30:52.365Z,0.80
2018-12-08T15:33:20.702Z,0.90
2018-12-08T15:35:48.208Z,1.00
2018-12-08T15:38:16.739Z,0.90
2018-12-08T15:40:45.371Z,1.80
2018-12-08T15:43:12.982Z,0.93
2018-12-08T15:45:40.742Z,1.20
2018-12-08T15:48:09.704Z,1.07
2018-12-08T15:50:38.218Z,0.90
2018-12-08T15:53:10.440Z,0.93
2018-12-08T15:55:39.231Z,1.02
2018-12-08T15:58:06.758Z,1.07
2018-12-08T16:00:35.352Z,1.30
2018-12-08T16:03:03.008Z,1.20
2018-12-08T16:05:30.452Z,0.90
2018-12-08T16:07:57.906Z,1.00
2018-12-08T16:10:25.395Z,1.33
2018-12-08T16:12:52.832Z,1.30
